sensor_id;sensor_type;location;lat;lon;timestamp;pressure;altitude;pressure_sealevel;temperature
12061;BMP180;6091;51.432;6.880;2023-04-03T00:01:09;102185.00;;;26.40
12061;BMP180;6091;51.432;6.880;2023-04-03T00:03:36;102191.00;;;26.40
12061;BMP180;6091;51.432;6.880;2023-04-03T00:06:04;102189.00;;;26.40
12061;BMP180;6091;51.432;6.880;2023-04-03T00:08:33;102183.00;;;26.40
12061;BMP180;6091;51.432;6.880;2023-04-03T00:11:01;102190.00;;;26.40
12061;BMP180;6091;51.432;6.880;2023-04-03T00:13:29;102189.00;;;26.40
12061;BMP180;6091;51.432;6.880;2023-04-03T00:15:56;102179.00;;;26.30
12061;BMP180;6091;51.432;6.880;2023-04-03T00:18:24;102185.00;;;26.30
12061;BMP180;6091;51.432;6.880;2023-04-03T00:20:51;102185.00;;;26.30
12061;BMP180;6091;51.432;6.880;2023-04-03T00:23:18;102191.00;;;26.30
12061;BMP180;6091;51.432;6.880;2023-04-03T00:25:45;102188.00;;;26.30
12061;BMP180;6091;51.432;6.880;2023-04-03T00:28:12;102185.00;;;26.20
12061;BMP180;6091;51.432;6.880;2023-04-03T00:30:39;102185.00;;;26.20
12061;BMP180;6091;51.432;6.880;2023-04-03T00:33:07;102190.00;;;26.20
12061;BMP180;6091;51.432;6.880;2023-04-03T00:35:34;102187.00;;;26.20
12061;BMP180;6091;51.432;6.880;2023-04-03T00:38:02;102189.00;;;26.10
12061;BMP180;6091;51.432;6.880;2023-04-03T00:40:38;102183.00;;;26.10
12061;BMP180;6091;51.432;6.880;2023-04-03T00:43:22;102185.00;;;26.10
12061;BMP180;6091;51.432;6.880;2023-04-03T00:45:53;102182.00;;;26.10
12061;BMP180;6091;51.432;6.880;2023-04-03T00:48:48;102178.00;;;26.10
12061;BMP180;6091;51.432;6.880;2023-04-03T00:51:20;102184.00;;;26.10
12061;BMP180;6091;51.432;6.880;2023-04-03T00:53:55;102182.00;;;26.10
12061;BMP180;6091;51.432;6.880;2023-04-03T00:56:27;102183.00;;;26.10
12061;BMP180;6091;51.432;6.880;2023-04-03T00:59:04;102191.00;;;26.10
12061;BMP180;6091;51.432;6.880;2023-04-03T01:01:32;102186.00;;;26.10
12061;BMP180;6091;51.432;6.880;2023-04-03T01:04:00;102181.00;;;26.10
12061;BMP180;6091;51.432;6.880;2023-04-03T01:06:35;102191.00;;;26.10
12061;BMP180;6091;51.432;6.880;2023-04-03T01:09:04;102196.00;;;26.10
12061;BMP180;6091;51.432;6.880;2023-04-03T01:11:32;102190.00;;;26.10
12061;BMP180;6091;51.432;6.880;2023-04-03T01:13:59;102191.00;;;26.10
12061;BMP180;6091;51.432;6.880;2023-04-03T01:16:29;102196.00;;;26.10
12061;BMP180;6091;51.432;6.880;2023-04-03T01:19:00;102171.00;;;26.20
12061;BMP180;6091;51.432;6.880;2023-04-03T01:21:47;102200.00;;;26.20
12061;BMP180;6091;51.432;6.880;2023-04-03T01:24:37;102201.00;;;26.10
12061;BMP180;6091;51.432;6.880;2023-04-03T01:27:09;102202.00;;;26.20
12061;BMP180;6091;51.432;6.880;2023-04-03T01:29:37;102201.00;;;26.20
12061;BMP180;6091;51.432;6.880;2023-04-03T01:32:05;102199.00;;;26.20
12061;BMP180;6091;51.432;6.880;2023-04-03T01:34:32;102199.00;;;26.20
12061;BMP180;6091;51.432;6.880;2023-04-03T01:36:59;102201.00;;;26.20
12061;BMP180;6091;51.432;6.880;2023-04-03T01:39:26;102206.00;;;26.20
12061;BMP180;6091;51.432;6.880;2023-04-03T01:41:54;102210.00;;;26.10
12061;BMP180;6091;51.432;6.880;2023-04-03T01:44:21;102210.00;;;26.20
12061;BMP180;6091;51.432;6.880;2023-04-03T01:46:48;102210.00;;;26.20
12061;BMP180;6091;51.432;6.880;2023-04-03T01:49:15;102204.00;;;26.10
12061;BMP180;6091;51.432;6.880;2023-04-03T01:51:42;102214.00;;;26.10
12061;BMP180;6091;51.432;6.880;2023-04-03T01:54:09;102191.00;;;26.10
12061;BMP180;6091;51.432;6.880;2023-04-03T01:56:37;102212.00;;;26.10
12061;BMP180;6091;51.432;6.880;2023-04-03T01:59:05;102214.00;;;26.10
12061;BMP180;6091;51.432;6.880;2023-04-03T02:01:33;102215.00;;;26.00
12061;BMP180;6091;51.432;6.880;2023-04-03T02:04:00;102214.00;;;26.00
12061;BMP180;6091;51.432;6.880;2023-04-03T02:06:27;102207.00;;;26.00
12061;BMP180;6091;51.432;6.880;2023-04-03T02:08:54;102209.00;;;26.00
12061;BMP180;6091;51.432;6.880;2023-04-03T02:11:24;102215.00;;;26.00
12061;BMP180;6091;51.432;6.880;2023-04-03T02:13:51;102210.00;;;25.90
12061;BMP180;6091;51.432;6.880;2023-04-03T02:16:18;102203.00;;;25.90
12061;BMP180;6091;51.432;6.880;2023-04-03T02:18:45;102241.00;;;25.90
12061;BMP180;6091;51.432;6.880;2023-04-03T02:21:13;102226.00;;;25.90
12061;BMP180;6091;51.432;6.880;2023-04-03T02:23:40;102225.00;;;25.90
12061;BMP180;6091;51.432;6.880;2023-04-03T02:26:11;102218.00;;;25.90
12061;BMP180;6091;51.432;6.880;2023-04-03T02:28:38;102216.00;;;25.80
12061;BMP180;6091;51.432;6.880;2023-04-03T02:31:07;102216.00;;;25.80
12061;BMP180;6091;51.432;6.880;2023-04-03T02:33:36;102227.00;;;25.80
12061;BMP180;6091;51.432;6.880;2023-04-03T02:36:07;102213.00;;;25.80
12061;BMP180;6091;51.432;6.880;2023-04-03T02:38:35;102226.00;;;25.80
12061;BMP180;6091;51.432;6.880;2023-04-03T02:41:06;102223.00;;;25.80
12061;BMP180;6091;51.432;6.880;2023-04-03T02:43:34;102223.00;;;25.80
12061;BMP180;6091;51.432;6.880;2023-04-03T02:46:01;102220.00;;;25.80
12061;BMP180;6091;51.432;6.880;2023-04-03T02:48:28;102200.00;;;25.80
12061;BMP180;6091;51.432;6.880;2023-04-03T02:50:55;102223.00;;;25.90
12061;BMP180;6091;51.432;6.880;2023-04-03T02:53:23;102213.00;;;25.90
12061;BMP180;6091;51.432;6.880;2023-04-03T02:55:50;102208.00;;;25.90
12061;BMP180;6091;51.432;6.880;2023-04-03T02:58:17;102223.00;;;25.90
12061;BMP180;6091;51.432;6.880;2023-04-03T03:00:44;102220.00;;;25.90
12061;BMP180;6091;51.432;6.880;2023-04-03T03:03:11;102231.00;;;25.90
12061;BMP180;6091;51.432;6.880;2023-04-03T03:05:40;102233.00;;;25.90
12061;BMP180;6091;51.432;6.880;2023-04-03T03:08:07;102230.00;;;26.00
12061;BMP180;6091;51.432;6.880;2023-04-03T03:10:34;102233.00;;;26.00
12061;BMP180;6091;51.432;6.880;2023-04-03T03:13:03;102233.00;;;26.00
12061;BMP180;6091;51.432;6.880;2023-04-03T03:15:30;102235.00;;;25.90
12061;BMP180;6091;51.432;6.880;2023-04-03T03:17:57;102234.00;;;25.90
12061;BMP180;6091;51.432;6.880;2023-04-03T03:20:27;102237.00;;;26.00
12061;BMP180;6091;51.432;6.880;2023-04-03T03:22:54;102235.00;;;26.00
12061;BMP180;6091;51.432;6.880;2023-04-03T03:25:21;102227.00;;;25.90
12061;BMP180;6091;51.432;6.880;2023-04-03T03:27:49;102248.00;;;25.90
12061;BMP180;6091;51.432;6.880;2023-04-03T03:30:18;102244.00;;;25.90
12061;BMP180;6091;51.432;6.880;2023-04-03T03:32:45;102235.00;;;25.90
12061;BMP180;6091;51.432;6.880;2023-04-03T03:35:13;102232.00;;;25.90
12061;BMP180;6091;51.432;6.880;2023-04-03T03:37:40;102226.00;;;25.90
12061;BMP180;6091;51.432;6.880;2023-04-03T03:40:08;102239.00;;;25.90
12061;BMP180;6091;51.432;6.880;2023-04-03T03:42:35;102235.00;;;25.90
12061;BMP180;6091;51.432;6.880;2023-04-03T03:45:03;102208.00;;;25.80
12061;BMP180;6091;51.432;6.880;2023-04-03T03:47:30;102230.00;;;25.80
12061;BMP180;6091;51.432;6.880;2023-04-03T03:49:57;102229.00;;;25.80
12061;BMP180;6091;51.432;6.880;2023-04-03T03:52:25;102234.00;;;25.80
12061;BMP180;6091;51.432;6.880;2023-04-03T03:54:52;102226.00;;;25.80
12061;BMP180;6091;51.432;6.880;2023-04-03T03:57:19;102220.00;;;25.70
12061;BMP180;6091;51.432;6.880;2023-04-03T03:59:47;102230.00;;;25.70
12061;BMP180;6091;51.432;6.880;2023-04-03T04:02:15;102234.00;;;25.70
12061;BMP180;6091;51.432;6.880;2023-04-03T04:04:43;102238.00;;;25.70
12061;BMP180;6091;51.432;6.880;2023-04-03T04:07:10;102227.00;;;25.70
12061;BMP180;6091;51.432;6.880;2023-04-03T04:09:37;102232.00;;;25.60
12061;BMP180;6091;51.432;6.880;2023-04-03T04:12:04;102227.00;;;25.60
12061;BMP180;6091;51.432;6.880;2023-04-03T04:14:31;102241.00;;;25.60
12061;BMP180;6091;51.432;6.880;2023-04-03T04:16:59;102241.00;;;25.60
12061;BMP180;6091;51.432;6.880;2023-04-03T04:19:26;102244.00;;;25.60
12061;BMP180;6091;51.432;6.880;2023-04-03T04:21:54;102239.00;;;25.60
12061;BMP180;6091;51.432;6.880;2023-04-03T04:24:22;102248.00;;;25.50
12061;BMP180;6091;51.432;6.880;2023-04-03T04:26:49;102250.00;;;25.50
12061;BMP180;6091;51.432;6.880;2023-04-03T04:29:17;102233.00;;;25.50
12061;BMP180;6091;51.432;6.880;2023-04-03T04:31:45;102258.00;;;25.50
12061;BMP180;6091;51.432;6.880;2023-04-03T04:34:12;102243.00;;;25.50
12061;BMP180;6091;51.432;6.880;2023-04-03T04:36:39;102252.00;;;25.50
12061;BMP180;6091;51.432;6.880;2023-04-03T04:39:07;102248.00;;;25.60
12061;BMP180;6091;51.432;6.880;2023-04-03T04:41:34;102254.00;;;25.60
12061;BMP180;6091;51.432;6.880;2023-04-03T04:44:02;102262.00;;;25.60
12061;BMP180;6091;51.432;6.880;2023-04-03T04:46:29;102261.00;;;25.70
12061;BMP180;6091;51.432;6.880;2023-04-03T04:48:56;102261.00;;;25.70
12061;BMP180;6091;51.432;6.880;2023-04-03T04:51:25;102264.00;;;25.70
12061;BMP180;6091;51.432;6.880;2023-04-03T04:53:54;102274.00;;;25.70
12061;BMP180;6091;51.432;6.880;2023-04-03T04:56:22;102270.00;;;25.70
12061;BMP180;6091;51.432;6.880;2023-04-03T04:58:49;102282.00;;;25.60
12061;BMP180;6091;51.432;6.880;2023-04-03T05:01:16;102278.00;;;25.70
12061;BMP180;6091;51.432;6.880;2023-04-03T05:03:44;102289.00;;;25.70
12061;BMP180;6091;51.432;6.880;2023-04-03T05:06:11;102284.00;;;25.80
12061;BMP180;6091;51.432;6.880;2023-04-03T05:08:38;102279.00;;;25.70
12061;BMP180;6091;51.432;6.880;2023-04-03T05:11:05;102293.00;;;25.70
12061;BMP180;6091;51.432;6.880;2023-04-03T05:13:32;102290.00;;;25.70
12061;BMP180;6091;51.432;6.880;2023-04-03T05:15:59;102286.00;;;25.70
12061;BMP180;6091;51.432;6.880;2023-04-03T05:18:26;102268.00;;;25.70
12061;BMP180;6091;51.432;6.880;2023-04-03T05:20:53;102290.00;;;25.70
12061;BMP180;6091;51.432;6.880;2023-04-03T05:23:20;102289.00;;;25.70
12061;BMP180;6091;51.432;6.880;2023-04-03T05:25:47;102294.00;;;25.60
12061;BMP180;6091;51.432;6.880;2023-04-03T05:28:15;102296.00;;;25.60
12061;BMP180;6091;51.432;6.880;2023-04-03T05:30:42;102301.00;;;25.60
12061;BMP180;6091;51.432;6.880;2023-04-03T05:33:09;102283.00;;;25.60
12061;BMP180;6091;51.432;6.880;2023-04-03T05:35:37;102284.00;;;25.60
12061;BMP180;6091;51.432;6.880;2023-04-03T05:38:08;102306.00;;;25.60
12061;BMP180;6091;51.432;6.880;2023-04-03T05:40:35;102292.00;;;25.60
12061;BMP180;6091;51.432;6.880;2023-04-03T05:43:03;102308.00;;;25.60
12061;BMP180;6091;51.432;6.880;2023-04-03T05:45:30;102281.00;;;25.70
12061;BMP180;6091;51.432;6.880;2023-04-03T05:47:57;102317.00;;;25.70
12061;BMP180;6091;51.432;6.880;2023-04-03T05:50:24;102324.00;;;25.80
12061;BMP180;6091;51.432;6.880;2023-04-03T05:52:55;102333.00;;;25.80
12061;BMP180;6091;51.432;6.880;2023-04-03T05:55:23;102332.00;;;25.90
12061;BMP180;6091;51.432;6.880;2023-04-03T05:57:50;102326.00;;;25.90
12061;BMP180;6091;51.432;6.880;2023-04-03T06:00:18;102335.00;;;26.00
12061;BMP180;6091;51.432;6.880;2023-04-03T06:02:45;102333.00;;;26.10
12061;BMP180;6091;51.432;6.880;2023-04-03T06:05:12;102331.00;;;26.10
12061;BMP180;6091;51.432;6.880;2023-04-03T06:07:40;102342.00;;;26.20
12061;BMP180;6091;51.432;6.880;2023-04-03T06:10:08;102346.00;;;26.30
12061;BMP180;6091;51.432;6.880;2023-04-03T06:12:35;102344.00;;;26.40
12061;BMP180;6091;51.432;6.880;2023-04-03T06:15:03;102337.00;;;26.40
12061;BMP180;6091;51.432;6.880;2023-04-03T06:17:30;102351.00;;;26.50
12061;BMP180;6091;51.432;6.880;2023-04-03T06:19:57;102321.00;;;26.60
12061;BMP180;6091;51.432;6.880;2023-04-03T06:22:25;102352.00;;;26.90
12061;BMP180;6091;51.432;6.880;2023-04-03T06:24:52;102356.00;;;26.80
12061;BMP180;6091;51.432;6.880;2023-04-03T06:27:19;102334.00;;;26.70
12061;BMP180;6091;51.432;6.880;2023-04-03T06:29:47;102326.00;;;26.60
12061;BMP180;6091;51.432;6.880;2023-04-03T06:32:16;102336.00;;;26.50
12061;BMP180;6091;51.432;6.880;2023-04-03T06:34:44;102323.00;;;26.40
12061;BMP180;6091;51.432;6.880;2023-04-03T06:37:22;102333.00;;;26.40
12061;BMP180;6091;51.432;6.880;2023-04-03T06:39:52;102321.00;;;26.30
12061;BMP180;6091;51.432;6.880;2023-04-03T06:42:20;102323.00;;;26.30
12061;BMP180;6091;51.432;6.880;2023-04-03T06:44:48;102337.00;;;26.30
12061;BMP180;6091;51.432;6.880;2023-04-03T06:47:16;102336.00;;;26.30
12061;BMP180;6091;51.432;6.880;2023-04-03T06:49:48;102335.00;;;26.30
12061;BMP180;6091;51.432;6.880;2023-04-03T06:52:15;102341.00;;;26.30
12061;BMP180;6091;51.432;6.880;2023-04-03T06:54:42;102329.00;;;26.30
12061;BMP180;6091;51.432;6.880;2023-04-03T06:57:09;102325.00;;;26.30
12061;BMP180;6091;51.432;6.880;2023-04-03T06:59:37;102335.00;;;26.40
12061;BMP180;6091;51.432;6.880;2023-04-03T07:02:05;102355.00;;;26.40
12061;BMP180;6091;51.432;6.880;2023-04-03T07:04:33;102346.00;;;26.50
12061;BMP180;6091;51.432;6.880;2023-04-03T07:07:00;102330.00;;;26.40
12061;BMP180;6091;51.432;6.880;2023-04-03T07:09:30;102325.00;;;26.60
12061;BMP180;6091;51.432;6.880;2023-04-03T07:11:57;102352.00;;;26.60
12061;BMP180;6091;51.432;6.880;2023-04-03T07:14:26;102370.00;;;26.60
12061;BMP180;6091;51.432;6.880;2023-04-03T07:16:55;102370.00;;;26.90
12061;BMP180;6091;51.432;6.880;2023-04-03T07:19:22;102344.00;;;27.10
12061;BMP180;6091;51.432;6.880;2023-04-03T07:21:51;102385.00;;;27.00
12061;BMP180;6091;51.432;6.880;2023-04-03T07:24:18;102381.00;;;27.00
12061;BMP180;6091;51.432;6.880;2023-04-03T07:26:52;102389.00;;;27.00
12061;BMP180;6091;51.432;6.880;2023-04-03T07:29:29;102360.00;;;27.10
12061;BMP180;6091;51.432;6.880;2023-04-03T07:32:04;102375.00;;;27.10
12061;BMP180;6091;51.432;6.880;2023-04-03T07:35:02;102387.00;;;27.10
12061;BMP180;6091;51.432;6.880;2023-04-03T07:37:37;102392.00;;;27.20
12061;BMP180;6091;51.432;6.880;2023-04-03T07:40:06;102353.00;;;27.20
12061;BMP180;6091;51.432;6.880;2023-04-03T07:42:39;102396.00;;;27.30
12061;BMP180;6091;51.432;6.880;2023-04-03T07:45:07;102384.00;;;27.30
12061;BMP180;6091;51.432;6.880;2023-04-03T07:47:38;102391.00;;;27.70
12061;BMP180;6091;51.432;6.880;2023-04-03T07:50:05;102400.00;;;27.50
12061;BMP180;6091;51.432;6.880;2023-04-03T07:52:33;102405.00;;;27.50
12061;BMP180;6091;51.432;6.880;2023-04-03T07:55:00;102406.00;;;27.50
12061;BMP180;6091;51.432;6.880;2023-04-03T07:57:27;102399.00;;;27.50
12061;BMP180;6091;51.432;6.880;2023-04-03T07:59:54;102391.00;;;27.50
12061;BMP180;6091;51.432;6.880;2023-04-03T08:02:21;102395.00;;;27.50
12061;BMP180;6091;51.432;6.880;2023-04-03T08:04:48;102394.00;;;27.50
12061;BMP180;6091;51.432;6.880;2023-04-03T08:07:16;102395.00;;;27.50
12061;BMP180;6091;51.432;6.880;2023-04-03T08:09:43;102389.00;;;27.60
12061;BMP180;6091;51.432;6.880;2023-04-03T08:12:16;102400.00;;;27.50
12061;BMP180;6091;51.432;6.880;2023-04-03T08:14:44;102411.00;;;27.50
12061;BMP180;6091;51.432;6.880;2023-04-03T08:17:11;102392.00;;;27.50
12061;BMP180;6091;51.432;6.880;2023-04-03T08:19:40;102396.00;;;27.60
12061;BMP180;6091;51.432;6.880;2023-04-03T08:22:07;102385.00;;;27.90
12061;BMP180;6091;51.432;6.880;2023-04-03T08:24:35;102397.00;;;27.70
12061;BMP180;6091;51.432;6.880;2023-04-03T08:27:03;102403.00;;;27.60
12061;BMP180;6091;51.432;6.880;2023-04-03T08:29:30;102398.00;;;27.70
12061;BMP180;6091;51.432;6.880;2023-04-03T08:31:59;102410.00;;;27.60
12061;BMP180;6091;51.432;6.880;2023-04-03T08:34:27;102407.00;;;27.60
12061;BMP180;6091;51.432;6.880;2023-04-03T08:36:57;102393.00;;;27.70
12061;BMP180;6091;51.432;6.880;2023-04-03T08:39:24;102395.00;;;27.60
12061;BMP180;6091;51.432;6.880;2023-04-03T08:41:52;102406.00;;;27.50
12061;BMP180;6091;51.432;6.880;2023-04-03T08:47:38;102423.00;;;27.30
12061;BMP180;6091;51.432;6.880;2023-04-03T08:50:18;102409.00;;;27.40
12061;BMP180;6091;51.432;6.880;2023-04-03T08:52:55;102407.00;;;27.40
12061;BMP180;6091;51.432;6.880;2023-04-03T08:55:33;102373.00;;;27.50
12061;BMP180;6091;51.432;6.880;2023-04-03T08:58:03;102419.00;;;27.50
12061;BMP180;6091;51.432;6.880;2023-04-03T09:00:45;102423.00;;;27.80
12061;BMP180;6091;51.432;6.880;2023-04-03T09:03:19;102416.00;;;27.60
12061;BMP180;6091;51.432;6.880;2023-04-03T09:06:20;102404.00;;;27.50
12061;BMP180;6091;51.432;6.880;2023-04-03T09:09:23;102400.00;;;27.50
12061;BMP180;6091;51.432;6.880;2023-04-03T09:15:04;102390.00;;;27.50
12061;BMP180;6091;51.432;6.880;2023-04-03T09:17:58;102417.00;;;27.50
12061;BMP180;6091;51.432;6.880;2023-04-03T09:23:50;102407.00;;;27.70
12061;BMP180;6091;51.432;6.880;2023-04-03T09:26:33;102414.00;;;27.60
12061;BMP180;6091;51.432;6.880;2023-04-03T09:29:06;102425.00;;;27.60
12061;BMP180;6091;51.432;6.880;2023-04-03T09:31:43;102417.00;;;27.60
12061;BMP180;6091;51.432;6.880;2023-04-03T09:34:30;102405.00;;;27.60
12061;BMP180;6091;51.432;6.880;2023-04-03T09:37:01;102417.00;;;27.50
12061;BMP180;6091;51.432;6.880;2023-04-03T09:39:53;102408.00;;;27.50
12061;BMP180;6091;51.432;6.880;2023-04-03T09:42:24;102413.00;;;27.50
12061;BMP180;6091;51.432;6.880;2023-04-03T09:45:23;102397.00;;;27.50
12061;BMP180;6091;51.432;6.880;2023-04-03T09:53:40;102406.00;;;27.60
12061;BMP180;6091;51.432;6.880;2023-04-03T10:01:35;102383.00;;;27.30
12061;BMP180;6091;51.432;6.880;2023-04-03T10:04:23;102394.00;;;27.20
12061;BMP180;6091;51.432;6.880;2023-04-03T10:06:54;102369.00;;;27.10
12061;BMP180;6091;51.432;6.880;2023-04-03T10:09:32;102400.00;;;27.10
12061;BMP180;6091;51.432;6.880;2023-04-03T10:12:10;102378.00;;;27.10
12061;BMP180;6091;51.432;6.880;2023-04-03T10:14:58;102390.00;;;27.10
12061;BMP180;6091;51.432;6.880;2023-04-03T10:20:51;102400.00;;;27.20
12061;BMP180;6091;51.432;6.880;2023-04-03T10:23:39;102398.00;;;27.40
12061;BMP180;6091;51.432;6.880;2023-04-03T10:29:22;102373.00;;;28.30
12061;BMP180;6091;51.432;6.880;2023-04-03T10:35:39;102396.00;;;29.20
12061;BMP180;6091;51.432;6.880;2023-04-03T10:39:00;102389.00;;;29.50
12061;BMP180;6091;51.432;6.880;2023-04-03T10:45:21;102376.00;;;29.70
12061;BMP180;6091;51.432;6.880;2023-04-03T10:51:05;102366.00;;;29.50
12061;BMP180;6091;51.432;6.880;2023-04-03T10:56:42;102359.00;;;29.40
12061;BMP180;6091;51.432;6.880;2023-04-03T11:05:04;102360.00;;;29.50
12061;BMP180;6091;51.432;6.880;2023-04-03T11:07:44;102359.00;;;29.60
12061;BMP180;6091;51.432;6.880;2023-04-03T11:10:42;102372.00;;;29.70
12061;BMP180;6091;51.432;6.880;2023-04-03T11:13:38;102359.00;;;29.80
12061;BMP180;6091;51.432;6.880;2023-04-03T11:16:08;102344.00;;;29.90
12061;BMP180;6091;51.432;6.880;2023-04-03T11:18:54;102347.00;;;30.00
12061;BMP180;6091;51.432;6.880;2023-04-03T11:21:40;102342.00;;;30.20
12061;BMP180;6091;51.432;6.880;2023-04-03T11:24:39;102349.00;;;30.30
12061;BMP180;6091;51.432;6.880;2023-04-03T11:27:23;102345.00;;;30.40
12061;BMP180;6091;51.432;6.880;2023-04-03T11:29:55;102345.00;;;30.60
12061;BMP180;6091;51.432;6.880;2023-04-03T11:35:05;102335.00;;;30.80
12061;BMP180;6091;51.432;6.880;2023-04-03T11:37:45;102340.00;;;30.90
12061;BMP180;6091;51.432;6.880;2023-04-03T11:40:28;102348.00;;;31.00
12061;BMP180;6091;51.432;6.880;2023-04-03T11:43:04;102351.00;;;31.10
12061;BMP180;6091;51.432;6.880;2023-04-03T11:46:02;102339.00;;;31.10
12061;BMP180;6091;51.432;6.880;2023-04-03T11:53:41;102330.00;;;31.30
12061;BMP180;6091;51.432;6.880;2023-04-03T12:01:56;102348.00;;;31.50
12061;BMP180;6091;51.432;6.880;2023-04-03T12:04:27;102325.00;;;31.50
12061;BMP180;6091;51.432;6.880;2023-04-03T12:07:18;102334.00;;;31.60
12061;BMP180;6091;51.432;6.880;2023-04-03T12:12:36;102332.00;;;31.70
12061;BMP180;6091;51.432;6.880;2023-04-03T12:15:49;102341.00;;;31.80
12061;BMP180;6091;51.432;6.880;2023-04-03T12:18:42;102332.00;;;31.90
12061;BMP180;6091;51.432;6.880;2023-04-03T12:21:13;102317.00;;;31.90
12061;BMP180;6091;51.432;6.880;2023-04-03T12:24:26;102335.00;;;32.00
12061;BMP180;6091;51.432;6.880;2023-04-03T12:27:26;102311.00;;;32.10
12061;BMP180;6091;51.432;6.880;2023-04-03T12:30:26;102288.00;;;32.20
12061;BMP180;6091;51.432;6.880;2023-04-03T12:33:57;102305.00;;;32.30
12061;BMP180;6091;51.432;6.880;2023-04-03T12:36:49;102292.00;;;32.40
12061;BMP180;6091;51.432;6.880;2023-04-03T12:39:51;102291.00;;;32.50
12061;BMP180;6091;51.432;6.880;2023-04-03T12:45:23;102293.00;;;32.70
12061;BMP180;6091;51.432;6.880;2023-04-03T12:47:54;102292.00;;;32.80
12061;BMP180;6091;51.432;6.880;2023-04-03T12:50:32;102287.00;;;32.90
12061;BMP180;6091;51.432;6.880;2023-04-03T12:53:16;102287.00;;;33.00
12061;BMP180;6091;51.432;6.880;2023-04-03T12:55:45;102283.00;;;33.30
12061;BMP180;6091;51.432;6.880;2023-04-03T12:58:27;102279.00;;;33.30
12061;BMP180;6091;51.432;6.880;2023-04-03T13:01:22;102272.00;;;33.30
12061;BMP180;6091;51.432;6.880;2023-04-03T13:03:58;102287.00;;;33.30
12061;BMP180;6091;51.432;6.880;2023-04-03T13:06:41;102274.00;;;33.40
12061;BMP180;6091;51.432;6.880;2023-04-03T13:09:28;102265.00;;;33.40
12061;BMP180;6091;51.432;6.880;2023-04-03T13:12:11;102280.00;;;33.50
12061;BMP180;6091;51.432;6.880;2023-04-03T13:14:40;102258.00;;;33.60
12061;BMP180;6091;51.432;6.880;2023-04-03T13:17:14;102280.00;;;33.70
12061;BMP180;6091;51.432;6.880;2023-04-03T13:19:45;102267.00;;;33.70
12061;BMP180;6091;51.432;6.880;2023-04-03T13:22:32;102280.00;;;33.80
12061;BMP180;6091;51.432;6.880;2023-04-03T13:25:05;102277.00;;;33.80
12061;BMP180;6091;51.432;6.880;2023-04-03T13:27:34;102273.00;;;34.10
12061;BMP180;6091;51.432;6.880;2023-04-03T13:30:06;102270.00;;;33.80
12061;BMP180;6091;51.432;6.880;2023-04-03T13:32:34;102275.00;;;33.70
12061;BMP180;6091;51.432;6.880;2023-04-03T13:35:01;102249.00;;;33.50
12061;BMP180;6091;51.432;6.880;2023-04-03T13:37:56;102259.00;;;33.40
12061;BMP180;6091;51.432;6.880;2023-04-03T13:40:25;102270.00;;;33.30
12061;BMP180;6091;51.432;6.880;2023-04-03T13:43:20;102264.00;;;33.20
12061;BMP180;6091;51.432;6.880;2023-04-03T13:46:23;102269.00;;;33.10
12061;BMP180;6091;51.432;6.880;2023-04-03T13:48:52;102253.00;;;32.90
12061;BMP180;6091;51.432;6.880;2023-04-03T13:51:28;102247.00;;;32.80
12061;BMP180;6091;51.432;6.880;2023-04-03T13:54:17;102251.00;;;32.70
12061;BMP180;6091;51.432;6.880;2023-04-03T13:56:45;102262.00;;;32.50
12061;BMP180;6091;51.432;6.880;2023-04-03T14:04:23;102241.00;;;32.00
12061;BMP180;6091;51.432;6.880;2023-04-03T14:06:50;102243.00;;;32.10
12061;BMP180;6091;51.432;6.880;2023-04-03T14:09:21;102232.00;;;31.70
12061;BMP180;6091;51.432;6.880;2023-04-03T14:11:53;102220.00;;;31.40
12061;BMP180;6091;51.432;6.880;2023-04-03T14:14:26;102229.00;;;31.30
12061;BMP180;6091;51.432;6.880;2023-04-03T14:17:20;102227.00;;;31.10
12061;BMP180;6091;51.432;6.880;2023-04-03T14:19:55;102187.00;;;31.00
12061;BMP180;6091;51.432;6.880;2023-04-03T14:22:32;102230.00;;;30.90
12061;BMP180;6091;51.432;6.880;2023-04-03T14:25:02;102223.00;;;30.70
12061;BMP180;6091;51.432;6.880;2023-04-03T14:27:54;102210.00;;;30.50
12061;BMP180;6091;51.432;6.880;2023-04-03T14:30:30;102203.00;;;30.30
12061;BMP180;6091;51.432;6.880;2023-04-03T14:32:59;102246.00;;;30.10
12061;BMP180;6091;51.432;6.880;2023-04-03T14:35:28;102198.00;;;29.90
12061;BMP180;6091;51.432;6.880;2023-04-03T14:37:55;102197.00;;;29.70
12061;BMP180;6091;51.432;6.880;2023-04-03T14:40:26;102201.00;;;29.50
12061;BMP180;6091;51.432;6.880;2023-04-03T14:42:54;102195.00;;;29.30
12061;BMP180;6091;51.432;6.880;2023-04-03T14:45:23;102195.00;;;29.30
12061;BMP180;6091;51.432;6.880;2023-04-03T14:47:54;102182.00;;;29.20
12061;BMP180;6091;51.432;6.880;2023-04-03T14:50:26;102188.00;;;29.20
12061;BMP180;6091;51.432;6.880;2023-04-03T14:52:57;102191.00;;;29.10
12061;BMP180;6091;51.432;6.880;2023-04-03T14:55:27;102197.00;;;29.10
12061;BMP180;6091;51.432;6.880;2023-04-03T14:57:55;102157.00;;;29.10
12061;BMP180;6091;51.432;6.880;2023-04-03T15:00:23;102173.00;;;29.10
12061;BMP180;6091;51.432;6.880;2023-04-03T15:02:50;102166.00;;;29.10
12061;BMP180;6091;51.432;6.880;2023-04-03T15:05:20;102168.00;;;29.10
12061;BMP180;6091;51.432;6.880;2023-04-03T15:07:53;102171.00;;;29.30
12061;BMP180;6091;51.432;6.880;2023-04-03T15:10:26;102187.00;;;29.50
12061;BMP180;6091;51.432;6.880;2023-04-03T15:12:55;102167.00;;;29.60
12061;BMP180;6091;51.432;6.880;2023-04-03T15:15:24;102163.00;;;29.80
12061;BMP180;6091;51.432;6.880;2023-04-03T15:17:56;102171.00;;;30.00
12061;BMP180;6091;51.432;6.880;2023-04-03T15:20:28;102178.00;;;30.30
12061;BMP180;6091;51.432;6.880;2023-04-03T15:22:57;102181.00;;;30.40
12061;BMP180;6091;51.432;6.880;2023-04-03T15:25:28;102185.00;;;30.60
12061;BMP180;6091;51.432;6.880;2023-04-03T15:27:57;102185.00;;;30.70
12061;BMP180;6091;51.432;6.880;2023-04-03T15:30:24;102186.00;;;30.80
12061;BMP180;6091;51.432;6.880;2023-04-03T15:32:51;102184.00;;;30.80
12061;BMP180;6091;51.432;6.880;2023-04-03T15:35:20;102173.00;;;31.00
12061;BMP180;6091;51.432;6.880;2023-04-03T15:37:47;102182.00;;;30.90
12061;BMP180;6091;51.432;6.880;2023-04-03T15:40:15;102186.00;;;30.90
12061;BMP180;6091;51.432;6.880;2023-04-03T15:42:42;102178.00;;;31.30
12061;BMP180;6091;51.432;6.880;2023-04-03T15:45:10;102182.00;;;31.30
12061;BMP180;6091;51.432;6.880;2023-04-03T15:47:37;102180.00;;;30.90
12061;BMP180;6091;51.432;6.880;2023-04-03T15:50:05;102169.00;;;30.70